Time;durP1;ratioP1;P1;durP2;ratioP2;P2;SDS_P1;SDS_P2;PMS_P1;PMS_P2;Temp;Humidity;BMP_temperature;BMP_pressure;BME280_temperature;BME280_humidity;BME280_pressure;Samples;Min_cycle;Max_cycle;Signal;HPM_P1;HPM_P2
2023/03/24 00:00:41;;;;;;;;;;;7.90;82.60;;;-151.14;100.00;62537.16;5015331;28;19927;-84
2023/03/24 00:03:09;;;;;;;;;;;7.90;82.60;;;-151.14;100.00;62537.16;5014968;28;19921;-83
2023/03/24 00:05:37;;;;;;;;;;;7.90;82.60;;;-151.14;100.00;62537.16;5015478;28;19921;-84
2023/03/24 00:08:05;;;;;;;;;;;7.90;82.60;;;-151.14;100.00;62537.16;5015495;28;20128;-83
2023/03/24 00:10:35;;;;;;;;;;;7.90;82.60;;;-151.14;100.00;62537.16;5015676;28;19921;-84
2023/03/24 00:13:04;;;;;;;;;;;7.90;82.80;;;-151.14;100.00;62537.16;5031172;28;19921;-84
2023/03/24 00:15:33;;;;;;;;;;;7.90;82.80;;;-151.14;100.00;62537.16;5015294;28;19921;-83
2023/03/24 00:18:03;;;;;;;;;;;7.90;83.00;;;-151.14;100.00;62537.16;5015401;28;19922;-83
2023/03/24 00:20:31;;;;;;;;;;;7.90;83.00;;;-151.14;100.00;62537.16;5015057;28;19921;-83
2023/03/24 00:22:59;;;;;;;;;;;7.90;82.80;;;-151.14;100.00;62537.16;5031134;28;19922;-83
2023/03/24 00:25:32;;;;;;;;;;;7.90;82.80;;;-151.14;100.00;62537.16;5015187;28;19921;-83
2023/03/24 00:28:00;;;;;;;;;;;7.90;82.90;;;-151.14;100.00;62537.16;5015129;28;19928;-83
2023/03/24 00:30:29;;;;;;;;;;;7.90;82.80;;;-151.14;100.00;62537.16;5015075;28;19921;-83
2023/03/24 00:32:57;;;;;;;;;;;7.90;83.00;;;-151.14;100.00;62537.16;5031009;28;19936;-83
2023/03/24 00:35:27;;;;;;;;;;;7.90;83.00;;;-151.14;100.00;62537.16;5014172;28;19928;-83
2023/03/24 00:37:55;;;;;;;;;;;7.90;83.00;;;-151.14;100.00;62537.16;5014985;28;19922;-84
2023/03/24 00:40:23;;;;;;;;;;;7.90;82.90;;;-151.14;100.00;62537.16;5014947;28;19943;-83
2023/03/24 00:42:51;;;;;;;;;;;7.90;83.00;;;-151.14;100.00;62537.16;5014229;28;19929;-84
2023/03/24 00:45:24;;;;;;;;;;;7.90;83.00;;;-151.14;100.00;62537.16;5014873;28;19921;-84
2023/03/24 00:47:53;;;;;;;;;;;7.90;82.90;;;-151.14;100.00;62537.16;5014875;28;19944;-84
2023/03/24 00:50:25;;;;;;;;;;;7.90;82.80;;;-151.14;100.00;62537.16;5031011;28;19927;-83
2023/03/24 00:52:54;;;;;;;;;;;7.90;83.00;;;-151.14;100.00;62537.16;5014238;28;19927;-83
2023/03/24 00:55:22;;;;;;;;;;;7.90;83.00;;;-151.14;100.00;62537.16;5014864;28;19928;-83
2023/03/24 00:57:51;;;;;;;;;;;7.90;83.00;;;-151.14;100.00;62537.16;5014578;28;19921;-83
2023/03/24 01:00:22;;;;;;;;;;;7.90;82.90;;;-151.14;100.00;62537.16;5014643;28;19921;-83
2023/03/24 01:02:52;;;;;;;;;;;7.90;83.00;;;-151.14;100.00;62537.16;5039364;28;19928;-83
2023/03/24 01:05:20;;;;;;;;;;;7.80;83.00;;;-151.14;100.00;62537.16;5034223;28;19935;-84
2023/03/24 01:07:51;;;;;;;;;;;7.80;82.90;;;-151.14;100.00;62537.16;5050813;28;19921;-83
2023/03/24 01:10:24;;;;;;;;;;;7.80;82.90;;;-151.14;100.00;62537.16;5050617;28;20121;-83
2023/03/24 01:12:53;;;;;;;;;;;7.80;82.90;;;-151.14;100.00;62537.16;5021984;28;19927;-84
2023/03/24 01:15:23;;;;;;;;;;;7.80;82.90;;;-151.14;100.00;62537.16;4994944;28;20093;-83
2023/03/24 01:17:52;;;;;;;;;;;7.80;82.80;;;-151.14;100.00;62537.16;4994698;28;20213;-83
2023/03/24 01:20:21;;;;;;;;;;;7.80;82.80;;;-151.14;100.00;62537.16;4994681;28;19936;-84
2023/03/24 01:22:50;;;;;;;;;;;7.80;82.70;;;-151.14;100.00;62537.16;5011677;28;20227;-83
2023/03/24 01:25:22;;;;;;;;;;;7.80;82.70;;;-151.14;100.00;62537.16;5011197;28;19928;-83
2023/03/24 01:27:51;;;;;;;;;;;7.80;82.90;;;-151.14;100.00;62537.16;5005708;28;20230;-83
2023/03/24 01:30:21;;;;;;;;;;;7.80;82.80;;;-151.14;100.00;62537.16;5033819;28;19928;-83
2023/03/24 01:32:50;;;;;;;;;;;7.80;82.90;;;-151.14;100.00;62537.16;5033359;28;20234;-83
2023/03/24 01:35:18;;;;;;;;;;;7.80;82.90;;;7.49;100.00;62537.16;5050459;28;19927;-83
2023/03/24 01:37:46;;;;;;;;;;;7.80;82.90;;;-151.14;100.00;62537.16;5033773;28;19920;-83
2023/03/24 01:40:17;;;;;;;;;;;7.80;82.90;;;-151.14;100.00;62537.16;5050322;28;19920;-83
2023/03/24 01:42:47;;;;;;;;;;;7.80;82.90;;;-151.14;100.00;62537.16;5049716;28;19935;-83
2023/03/24 01:45:44;;;;;;;;;;;7.80;82.80;;;-151.14;100.00;62537.16;5033741;28;19921;-83
2023/03/24 01:48:14;;;;;;;;;;;7.80;82.80;;;-151.14;100.00;62537.16;5033584;28;19920;-83
2023/03/24 01:50:43;;;;;;;;;;;7.80;82.80;;;-151.14;100.00;62537.16;5066940;28;19927;-83
2023/03/24 01:53:11;;;;;;;;;;;7.80;82.70;;;-151.14;100.00;62537.16;5049670;28;19928;-83
2023/03/24 01:55:39;;;;;;;;;;;7.80;82.80;;;-151.14;100.00;62537.16;5033617;28;20097;-83
2023/03/24 01:58:10;;;;;;;;;;;7.80;82.60;;;-151.14;100.00;62537.16;5033496;28;20120;-83
2023/03/24 02:00:49;;;;;;;;;;;7.80;82.60;;;;;;5033347;28;19927;-83
2023/03/24 02:03:44;;;;;;;;;;;7.80;82.50;;;-151.14;100.00;62537.16;5034490;28;19974;-83
2023/03/24 02:06:12;;;;;;;;;;;7.80;82.60;;;-151.14;100.00;62537.16;5033563;28;19920;-83
2023/03/24 02:08:42;;;;;;;;;;;7.80;82.40;;;-151.14;100.00;62537.16;5043064;28;19928;-83
2023/03/24 02:11:10;;;;;;;;;;;7.80;82.50;;;-151.14;100.00;62537.16;5029935;28;20113;-83
2023/03/24 02:13:49;;;;;;;;;;;7.80;82.50;;;18.08;100.00;62537.16;5013433;28;19922;-83
2023/03/24 02:16:29;;;;;;;;;;;7.80;82.40;;;-151.14;100.00;62537.16;5013707;28;19928;-83
2023/03/24 02:19:11;;;;;;;;;;;7.80;82.50;;;-151.14;100.00;62537.16;5013457;28;19921;-83
2023/03/24 02:22:06;;;;;;;;;;;7.80;82.50;;;-151.14;100.00;62537.16;5029891;28;19928;-83
2023/03/24 02:25:16;;;;;;;;;;;7.80;82.40;;;-151.14;100.00;62537.16;5013517;28;19927;-83
2023/03/24 02:28:11;;;;;;;;;;;7.80;82.60;;;-151.14;100.00;62537.16;5013808;28;19927;-83
2023/03/24 02:30:54;;;;;;;;;;;7.80;82.50;;;-151.14;100.00;62537.16;5011668;28;19921;-83
2023/03/24 02:34:13;;;;;;;;;;;7.80;82.20;;;-151.14;100.00;62537.16;5013160;28;19921;-83
2023/03/24 02:36:54;;;;;;;;;;;7.80;82.30;;;-151.14;100.00;62537.16;5013634;28;19927;-83
2023/03/24 02:39:45;;;;;;;;;;;7.70;82.40;;;-151.14;100.00;62537.16;5029520;28;19921;-83
2023/03/24 02:42:20;;;;;;;;;;;7.80;82.40;;;-151.14;100.00;62537.16;5029422;28;20113;-83
2023/03/24 02:44:51;;;;;;;;;;;7.70;82.20;;;-151.14;100.00;62537.16;5013046;28;19921;-83
2023/03/24 02:47:22;;;;;;;;;;;7.80;82.20;;;-151.14;100.00;62537.16;5029738;28;19921;-83
2023/03/24 02:49:55;;;;;;;;;;;7.70;82.20;;;-151.14;100.00;62537.16;5029555;28;20184;-83
2023/03/24 02:52:29;;;;;;;;;;;7.70;82.20;;;-151.14;100.00;62537.16;5013050;28;19927;-83
2023/03/24 02:55:00;;;;;;;;;;;7.70;82.10;;;-151.14;100.00;62537.16;5029554;28;19921;-83
2023/03/24 02:57:31;;;;;;;;;;;7.70;82.10;;;-151.14;100.00;62537.16;5013044;28;20124;-83
2023/03/24 03:00:40;;;;;;;;;;;7.70;82.10;;;-151.14;100.00;62537.16;5033891;28;19921;-83
2023/03/24 03:03:11;;;;;;;;;;;7.70;82.00;;;-151.14;100.00;62537.16;5033483;28;19921;-83
2023/03/24 03:05:42;;;;;;;;;;;7.70;82.00;;;-151.14;100.00;62537.16;5016619;28;19928;-83
2023/03/24 03:08:10;;;;;;;;;;;7.70;81.90;;;-151.14;100.00;62537.16;5016370;28;20019;-83
2023/03/24 03:10:40;;;;;;;;;;;7.70;82.00;;;-151.14;100.00;62537.16;5016534;28;19921;-83
2023/03/24 03:13:11;;;;;;;;;;;7.70;81.90;;;-151.14;100.00;62537.16;5032278;28;19921;-83
2023/03/24 03:15:40;;;;;;;;;;;7.70;82.00;;;-151.14;100.00;62537.16;5016511;28;19928;-83
2023/03/24 03:18:10;;;;;;;;;;;7.70;82.00;;;-151.14;100.00;62537.16;5016188;28;19957;-83
2023/03/24 03:20:41;;;;;;;;;;;7.70;82.00;;;-151.14;100.00;62537.16;5032642;28;20244;-83
2023/03/24 03:23:10;;;;;;;;;;;7.60;81.80;;;-151.14;100.00;62537.16;5015491;28;19927;-83
2023/03/24 03:25:42;;;;;;;;;;;7.70;81.90;;;-151.14;100.00;62537.16;5016246;28;20117;-83
2023/03/24 03:28:10;;;;;;;;;;;7.70;82.80;;;-151.14;100.00;62537.16;5016128;28;19928;-83
2023/03/24 03:30:40;;;;;;;;;;;7.70;81.90;;;-151.14;100.00;62537.16;5032437;28;20098;-83
2023/03/24 03:33:08;;;;;;;;;;;7.70;81.90;;;;;;5015446;28;19927;-83
2023/03/24 03:35:38;;;;;;;;;;;7.70;81.90;;;-151.14;100.00;62537.16;5031757;28;20231;-83
2023/03/24 03:38:10;;;;;;;;;;;7.70;81.90;;;-151.14;100.00;62537.16;5014941;28;19921;-83
2023/03/24 03:40:41;;;;;;;;;;;7.70;81.90;;;-151.14;100.00;62537.16;5032461;28;20209;-83
2023/03/24 03:43:16;;;;;;;;;;;7.60;81.70;;;-151.14;100.00;62537.16;5015190;28;19927;-83
2023/03/24 03:45:44;;;;;;;;;;;7.60;81.80;;;-151.14;100.00;62537.16;5016042;28;19921;-83
2023/03/24 03:48:12;;;;;;;;;;;7.60;81.70;;;-151.14;100.00;62537.16;5015631;28;19921;-83
2023/03/24 03:50:40;;;;;;;;;;;7.60;81.70;;;-151.14;100.00;62537.16;5032142;28;19927;-83
2023/03/24 03:53:09;;;;;;;;;;;7.60;81.70;;;-151.14;100.00;62537.16;5015213;28;19921;-84
2023/03/24 03:55:37;;;;;;;;;;;7.60;81.60;;;-151.14;100.00;62537.16;5032274;28;19921;-83
2023/03/24 03:58:07;;;;;;;;;;;7.60;81.60;;;-151.14;100.00;62537.16;5015753;28;19927;-83
2023/03/24 04:00:43;;;;;;;;;;;7.60;81.60;;;-151.14;100.00;62537.16;5015487;28;19928;-83
2023/03/24 04:03:37;;;;;;;;;;;7.60;81.70;;;-151.14;100.00;62537.16;5032958;28;19928;-83
2023/03/24 04:06:08;;;;;;;;;;;7.60;81.70;;;-151.14;100.00;62537.16;5031711;28;19921;-83
2023/03/24 04:08:45;;;;;;;;;;;7.60;81.70;;;-151.14;100.00;62537.16;5032128;28;19936;-84
2023/03/24 04:12:00;;;;;;;;;;;7.60;81.70;;;-151.14;100.00;62537.16;5031423;28;20209;-83
2023/03/24 04:14:54;;;;;;;;;;;7.60;81.60;;;-151.14;100.00;62537.16;5007330;28;19921;-83
2023/03/24 04:18:11;;;;;;;;;;;7.60;81.60;;;-151.14;100.00;62537.16;4990207;28;19921;-83
2023/03/24 04:21:08;;;;;;;;;;;7.60;81.60;;;-151.14;100.00;62537.16;5011639;28;19926;-83
2023/03/24 04:23:40;;;;;;;;;;;7.60;81.60;;;-151.14;100.00;62537.16;4995421;28;19922;-83
2023/03/24 04:26:13;;;;;;;;;;;7.60;81.60;;;-151.14;100.00;62537.16;5013116;28;19922;-84
2023/03/24 04:28:43;;;;;;;;;;;7.60;81.50;;;6.40;100.00;62537.16;4995550;28;20222;-83
2023/03/24 04:31:16;;;;;;;;;;;7.60;81.50;;;-151.14;100.00;62537.16;5011644;28;20210;-83
2023/03/24 04:33:49;;;;;;;;;;;7.60;81.50;;;-151.14;100.00;62537.16;5011728;28;19922;-83
2023/03/24 04:36:22;;;;;;;;;;;7.60;81.60;;;-151.14;100.00;62537.16;5012324;28;19927;-83
2023/03/24 04:39:11;;;;;;;;;;;7.60;81.50;;;-151.14;100.00;62537.16;5051007;28;19921;-83
2023/03/24 04:41:46;;;;;;;;;;;7.60;81.50;;;-151.14;100.00;62537.16;5034246;28;19933;-83
2023/03/24 04:44:22;;;;;;;;;;;7.70;81.70;;;-151.14;100.00;62537.16;5051331;28;19921;-83
2023/03/24 04:47:15;;;;;;;;;;;7.90;81.50;;;-151.14;100.00;62537.16;5045494;28;19927;-83
2023/03/24 04:50:00;;;;;;;;;;;8.10;80.40;;;-151.14;100.00;62537.16;5034550;28;19924;-83
2023/03/24 04:52:29;;;;;;;;;;;8.20;79.50;;;-151.14;100.00;62537.16;5034157;28;19921;-83
2023/03/24 04:54:58;;;;;;;;;;;8.40;78.60;;;-151.14;100.00;62537.16;5034526;28;19927;-83
2023/03/24 04:57:27;;;;;;;;;;;8.40;77.80;;;-151.14;100.00;62537.16;5034439;28;20132;-83
2023/03/24 05:00:07;;;;;;;;;;;8.40;77.20;;;-151.14;100.00;62537.16;5034197;28;19943;-83
2023/03/24 05:02:37;;;;;;;;;;;8.50;77.00;;;-151.14;100.00;62537.16;5033767;28;19921;-83
2023/03/24 05:05:14;;;;;;;;;;;8.50;76.60;;;-151.14;100.00;62537.16;5034277;28;19935;-83
2023/03/24 05:07:47;;;;;;;;;;;8.60;76.60;;;-151.14;100.00;62537.16;5034310;28;20209;-83
2023/03/24 05:10:18;;;;;;;;;;;8.70;76.40;;;-151.14;100.00;62537.16;5034301;28;19921;-83
2023/03/24 05:12:51;;;;;;;;;;;8.70;76.60;;;-151.14;100.00;62537.16;5033734;28;19920;-83
2023/03/24 05:15:28;;;;;;;;;;;8.80;76.30;;;-151.14;100.00;62537.16;5050876;28;19927;-83
2023/03/24 05:18:15;;;;;;;;;;;8.90;76.70;;;-151.14;100.00;62537.16;5034062;28;19921;-83
2023/03/24 05:20:44;;;;;;;;;;;8.90;76.80;;;-151.14;100.00;62537.16;5033913;28;20093;-83
2023/03/24 05:23:18;;;;;;;;;;;8.90;76.80;;;-151.14;100.00;62537.16;5033776;28;20204;-83
2023/03/24 05:25:48;;;;;;;;;;;9.00;76.80;;;-151.14;100.00;62537.16;5034178;28;19921;-83
2023/03/24 05:28:17;;;;;;;;;;;9.10;77.00;;;-151.14;100.00;62537.16;5016063;28;19921;-83
2023/03/24 05:30:45;;;;;;;;;;;9.20;76.70;;;-151.14;100.00;62537.16;5030970;28;19928;-83
2023/03/24 05:33:35;;;;;;;;;;;9.30;76.50;;;-151.14;100.00;62537.16;5049866;28;20112;-83
2023/03/24 05:36:04;;;;;;;;;;;9.50;76.10;;;-151.14;100.00;62537.16;5050635;28;19921;-83
2023/03/24 05:38:32;;;;;;;;;;;9.80;75.50;;;-151.14;100.00;62537.16;5050491;28;19927;-83
2023/03/24 05:41:00;;;;;;;;;;;10.20;74.40;;;8.86;100.00;62537.16;5033397;28;19921;-83
2023/03/24 05:43:34;;;;;;;;;;;10.70;73.00;;;-151.14;100.00;62537.16;5050219;28;19927;-83
2023/03/24 05:46:11;;;;;;;;;;;11.20;71.00;;;-151.14;100.00;62537.16;5050577;28;19921;-83
2023/03/24 05:48:41;;;;;;;;;;;11.60;69.20;;;-151.14;100.00;62537.16;5050255;28;19927;-83
2023/03/24 05:51:17;;;;;;;;;;;12.00;67.60;;;-151.14;100.00;62537.16;5049973;28;20235;-83
2023/03/24 05:53:47;;;;;;;;;;;12.40;66.00;;;18.08;100.00;62537.16;5033434;28;19920;-83
2023/03/24 05:56:26;;;;;;;;;;;12.70;64.70;;;-151.14;100.00;62537.16;5033580;28;20213;-83
2023/03/24 05:59:21;;;;;;;;;;;13.00;63.50;;;-151.14;100.00;62537.16;5010481;28;19922;-83
2023/03/24 06:01:58;;;;;;;;;;;13.20;62.40;;;-151.14;100.00;62537.16;5010212;28;19921;-83
2023/03/24 06:04:44;;;;;;;;;;;13.30;61.70;;;-151.14;100.00;62537.16;4994134;28;19922;-83
2023/03/24 06:07:16;;;;;;;;;;;13.40;61.20;;;-151.14;100.00;62537.16;5002353;28;19927;-83
2023/03/24 06:09:49;;;;;;;;;;;13.40;60.70;;;-151.14;100.00;62537.16;5050020;28;19921;-83
2023/03/24 06:12:20;;;;;;;;;;;13.50;60.40;;;-151.14;100.00;62537.16;5032861;28;20212;-83
2023/03/24 06:14:54;;;;;;;;;;;13.30;60.30;;;-151.14;100.00;62537.16;5049870;28;20227;-83
2023/03/24 06:17:23;;;;;;;;;;;13.00;60.50;;;-151.14;100.00;62537.16;5049922;28;19920;-83
2023/03/24 06:20:01;;;;;;;;;;;12.70;61.40;;;-151.14;100.00;62537.16;5033329;28;19921;-83
2023/03/24 06:22:48;;;;;;;;;;;12.20;63.00;;;-151.14;100.00;62537.16;5049240;28;20205;-83
2023/03/24 06:25:25;;;;;;;;;;;11.80;64.70;;;-151.14;100.00;62537.16;5033356;28;19921;-83
2023/03/24 06:28:13;;;;;;;;;;;11.40;66.30;;;-151.14;100.00;62537.16;5049324;28;19927;-83
2023/03/24 06:30:43;;;;;;;;;;;11.10;68.00;;;-151.14;100.00;62537.16;5033237;28;19921;-83
2023/03/24 06:33:13;;;;;;;;;;;10.80;69.00;;;-151.14;100.00;62537.16;5041023;28;19944;-83
2023/03/24 06:35:45;;;;;;;;;;;10.60;70.00;;;-151.14;100.00;62537.16;5017167;28;19921;-83
2023/03/24 06:38:16;;;;;;;;;;;10.40;70.80;;;-151.14;100.00;62537.16;5016748;28;19929;-83
2023/03/24 06:40:46;;;;;;;;;;;10.20;71.60;;;-151.14;100.00;62537.16;5016763;28;20156;-83
2023/03/24 06:43:14;;;;;;;;;;;10.10;72.40;;;-151.14;100.00;62537.16;5023672;28;19921;-83
2023/03/24 06:45:44;;;;;;;;;;;10.00;73.00;;;-151.14;100.00;62537.16;5036358;28;19921;-83
2023/03/24 06:48:18;;;;;;;;;;;9.90;73.50;;;8.60;100.00;62537.16;5036736;28;19921;-83
2023/03/24 06:50:47;;;;;;;;;;;9.90;73.90;;;-151.14;100.00;62537.16;5052980;28;19921;-83
2023/03/24 06:53:15;;;;;;;;;;;9.80;74.10;;;8.51;100.00;62537.16;5052373;28;19921;-83
2023/03/24 06:55:43;;;;;;;;;;;9.80;74.40;;;-151.14;100.00;62537.16;5053002;28;19927;-83
2023/03/24 06:58:13;;;;;;;;;;;9.70;74.70;;;-151.14;100.00;62537.16;5036260;28;19943;-82
2023/03/24 07:01:05;;;;;;;;;;;9.70;74.90;;;-151.14;100.00;62537.16;5035851;28;19935;-83
2023/03/24 07:03:36;;;;;;;;;;;9.60;75.00;;;-151.14;100.00;62537.16;5052552;28;19927;-83
2023/03/24 07:06:26;;;;;;;;;;;9.60;75.20;;;-151.14;100.00;62537.16;5048761;28;19921;-83
2023/03/24 07:08:57;;;;;;;;;;;9.60;75.40;;;-151.14;100.00;62537.16;5035950;28;19921;-82
2023/03/24 07:11:28;;;;;;;;;;;9.60;75.60;;;8.31;100.00;62537.16;5035822;28;20220;-82
2023/03/24 07:13:59;;;;;;;;;;;9.60;75.80;;;8.28;100.00;62537.16;5035670;28;19927;-82
2023/03/24 07:16:29;;;;;;;;;;;9.50;76.00;;;-151.14;100.00;62537.16;5036160;28;19920;-82
2023/03/24 07:19:11;;;;;;;;;;;9.50;76.20;;;-151.14;100.00;62537.16;5035727;28;20131;-82
2023/03/24 07:21:43;;;;;;;;;;;9.50;76.40;;;-151.14;100.00;62537.16;5035638;28;19920;-82
2023/03/24 07:24:11;;;;;;;;;;;9.50;76.60;;;-151.14;100.00;62537.16;5035644;28;19928;-82
2023/03/24 07:27:09;;;;;;;;;;;9.50;76.80;;;-151.14;100.00;62537.16;5043637;28;19921;-82
2023/03/24 07:29:37;;;;;;;;;;;9.40;76.80;;;-151.14;100.00;62537.16;5035841;28;19943;-82
2023/03/24 07:32:33;;;;;;;;;;;9.40;77.00;;;-151.14;100.00;62537.16;5052838;28;19921;-83
2023/03/24 07:35:01;;;;;;;;;;;9.40;77.10;;;8.24;100.00;62537.16;5052454;28;19927;-82
2023/03/24 07:37:30;;;;;;;;;;;9.40;77.20;;;-151.14;100.00;62537.16;5052284;28;19920;-83
2023/03/24 07:39:58;;;;;;;;;;;9.40;77.20;;;-151.14;100.00;62537.16;5035483;28;20209;-82
2023/03/24 07:42:26;;;;;;;;;;;9.40;77.20;;;-151.14;100.00;62537.16;5035200;28;19921;-82
2023/03/24 07:45:33;;;;;;;;;;;9.40;77.30;;;-151.14;100.00;62537.16;5045300;28;19943;-82
2023/03/24 07:48:01;;;;;;;;;;;9.40;77.30;;;-151.14;100.00;62537.16;5035600;28;19927;-82
2023/03/24 07:50:32;;;;;;;;;;;9.40;77.40;;;-151.14;100.00;62537.16;5034833;28;19921;-83
2023/03/24 07:53:03;;;;;;;;;;;9.50;77.50;;;-151.14;100.00;62537.16;5015361;28;19921;-83
2023/03/24 07:55:31;;;;;;;;;;;9.50;77.60;;;-151.14;100.00;62537.16;5011884;28;19922;-83
2023/03/24 07:58:08;;;;;;;;;;;9.50;77.40;;;-151.14;100.00;62537.16;5029487;28;19935;-82
2023/03/24 08:00:37;;;;;;;;;;;9.50;77.40;;;-151.14;100.00;62537.16;5031334;28;19939;-82
2023/03/24 08:03:26;;;;;;;;;;;9.50;78.20;;;-151.14;100.00;62537.16;5032031;28;20117;-82
2023/03/24 08:06:08;;;;;;;;;;;9.50;77.40;;;-151.14;100.00;62537.16;5024436;28;20002;-82
2023/03/24 08:08:54;;;;;;;;;;;9.50;77.60;;;-151.14;100.00;62537.16;5034213;28;20119;-82
2023/03/24 08:11:22;;;;;;;;;;;9.50;77.60;;;-151.14;100.00;62537.16;5050627;28;19929;-82
2023/03/24 08:13:50;;;;;;;;;;;9.50;77.70;;;-151.14;100.00;62537.16;5001236;28;20221;-82
2023/03/24 08:16:18;;;;;;;;;;;9.50;77.90;;;8.48;100.00;62537.16;4995774;28;19929;-82
2023/03/24 08:18:47;;;;;;;;;;;9.50;78.00;;;-151.14;100.00;62537.16;5012474;28;19921;-82
2023/03/24 08:21:15;;;;;;;;;;;9.50;78.00;;;18.08;100.00;62537.16;5019332;28;19921;-82
2023/03/24 08:23:43;;;;;;;;;;;9.60;78.20;;;8.43;100.00;62537.16;5030640;28;19929;-82
2023/03/24 08:26:13;;;;;;;;;;;9.60;78.20;;;-151.14;100.00;62537.16;5024745;28;19933;-82
2023/03/24 08:28:41;;;;;;;;;;;9.50;78.20;;;8.81;100.00;62537.16;5050088;28;19921;-82
2023/03/24 08:31:09;;;;;;;;;;;9.60;78.30;;;8.48;100.00;62537.16;5050716;28;20243;-82
2023/03/24 08:33:37;;;;;;;;;;;9.60;78.30;;;8.52;100.00;62537.16;5034047;28;19927;-82
2023/03/24 08:36:06;;;;;;;;;;;9.60;78.40;;;-151.14;100.00;62537.16;5033846;28;19927;-82
2023/03/24 08:38:37;;;;;;;;;;;9.70;78.40;;;-151.14;100.00;62537.16;5034031;28;20217;-82
2023/03/24 08:41:07;;;;;;;;;;;9.70;78.90;;;8.57;100.00;62537.16;5051563;28;19928;-82
2023/03/24 08:43:37;;;;;;;;;;;9.70;78.60;;;8.62;100.00;62537.16;5033669;28;20246;-82
2023/03/24 08:46:06;;;;;;;;;;;9.70;78.70;;;-151.14;100.00;62537.16;5019871;28;20243;-82
2023/03/24 08:48:36;;;;;;;;;;;9.80;78.90;;;8.64;100.00;62537.16;5030444;28;19921;-82
2023/03/24 08:51:10;;;;;;;;;;;9.70;79.20;;;8.67;100.00;62537.16;5030124;28;19921;-82
2023/03/24 08:53:38;;;;;;;;;;;9.80;78.90;;;-151.14;100.00;62537.16;5020461;28;19922;-82
2023/03/24 08:56:07;;;;;;;;;;;9.80;79.00;;;-151.14;100.00;62537.16;4993772;28;19929;-82
2023/03/24 08:58:37;;;;;;;;;;;9.90;79.50;;;-151.14;100.00;62537.16;4994259;28;19928;-82
2023/03/24 09:01:06;;;;;;;;;;;9.90;79.20;;;-151.14;100.00;62537.16;5006828;28;19927;-86
2023/03/24 09:03:34;;;;;;;;;;;9.90;79.40;;;-151.14;100.00;62537.16;5006990;28;19921;-87
2023/03/24 09:06:03;;;;;;;;;;;9.90;79.30;;;8.77;100.00;62537.16;5014291;28;20221;-87
2023/03/24 09:08:31;;;;;;;;;;;9.90;79.40;;;-151.14;100.00;62537.16;5014295;28;20046;-87
2023/03/24 09:10:59;;;;;;;;;;;9.90;79.80;;;-151.14;100.00;62537.16;5030551;28;19921;-87
2023/03/24 09:13:27;;;;;;;;;;;9.90;79.80;;;-151.14;100.00;62537.16;5014349;28;19921;-86
2023/03/24 09:16:00;;;;;;;;;;;9.90;80.00;;;8.80;100.00;62537.16;5014197;28;19980;-87
2023/03/24 09:18:28;;;;;;;;;;;9.90;79.60;;;-151.14;100.00;62537.16;5031276;28;19927;-87
2023/03/24 09:20:56;;;;;;;;;;;10.00;79.90;;;-151.14;100.00;62537.16;5031005;28;19921;-87
2023/03/24 09:23:24;;;;;;;;;;;10.00;79.80;;;-151.14;100.00;62537.16;5014531;28;19928;-87
2023/03/24 09:25:53;;;;;;;;;;;10.00;80.30;;;-151.14;100.00;62537.16;5014618;28;20094;-87
2023/03/24 09:28:22;;;;;;;;;;;10.00;79.80;;;-151.14;100.00;62537.16;5030952;28;19921;-86
2023/03/24 09:30:50;;;;;;;;;;;10.00;80.00;;;-151.14;100.00;62537.16;5014702;28;19922;-87
2023/03/24 09:33:19;;;;;;;;;;;10.00;80.00;;;-151.14;100.00;62537.16;5014657;28;19943;-87
2023/03/24 09:35:54;;;;;;;;;;;10.00;80.10;;;-151.14;100.00;62537.16;5030959;28;19921;-88
2023/03/24 09:38:22;;;;;;;;;;;10.00;80.00;;;-151.14;100.00;62537.16;5014163;28;19925;-86
2023/03/24 09:40:51;;;;;;;;;;;10.00;80.40;;;-151.14;100.00;62537.16;5014335;28;19928;-88
2023/03/24 09:43:23;;;;;;;;;;;9.90;80.60;;;-151.14;100.00;62537.16;5014298;28;19921;-87
2023/03/24 09:45:52;;;;;;;;;;;10.00;81.00;;;-151.14;100.00;62537.16;5014232;28;19921;-87
2023/03/24 09:48:26;;;;;;;;;;;10.00;81.60;;;-151.14;100.00;62537.16;5030595;28;19921;-87
2023/03/24 09:50:55;;;;;;;;;;;10.00;81.80;;;-151.14;100.00;62537.16;5014143;28;19947;-87
2023/03/24 09:53:28;;;;;;;;;;;10.00;81.80;;;-151.14;100.00;62537.16;5030602;28;20221;-87
2023/03/24 09:55:56;;;;;;;;;;;10.00;81.90;;;-151.14;100.00;62537.16;5014049;28;19927;-86
2023/03/24 09:58:24;;;;;;;;;;;10.00;81.50;;;8.86;100.00;62537.16;5014094;28;19921;-86
2023/03/24 10:00:52;;;;;;;;;;;10.00;81.40;;;-151.14;100.00;62537.16;5014000;28;19925;-87
2023/03/24 10:03:22;;;;;;;;;;;10.00;81.30;;;-151.14;100.00;62537.16;5031629;28;20120;-87
2023/03/24 10:05:54;;;;;;;;;;;10.00;81.60;;;-151.14;100.00;62537.16;5015351;28;19921;-87
2023/03/24 10:08:25;;;;;;;;;;;10.00;81.60;;;-151.14;100.00;62537.16;5035953;28;19983;-87
2023/03/24 10:10:57;;;;;;;;;;;10.00;81.40;;;-151.14;100.00;62537.16;5019019;28;19922;-87
2023/03/24 10:13:29;;;;;;;;;;;10.00;81.30;;;-151.14;100.00;62537.16;5009172;28;19927;-87
2023/03/24 10:16:01;;;;;;;;;;;10.00;80.90;;;-151.14;100.00;62537.16;5017500;28;19928;-86
2023/03/24 10:18:34;;;;;;;;;;;10.00;80.50;;;-151.14;100.00;62537.16;5017517;28;19929;-87
2023/03/24 10:21:06;;;;;;;;;;;10.00;80.20;;;-151.14;100.00;62537.16;5033466;28;19921;-86
2023/03/24 10:23:36;;;;;;;;;;;10.00;80.00;;;-151.14;100.00;62537.16;5033747;28;20400;-87
2023/03/24 10:26:08;;;;;;;;;;;10.00;79.90;;;-151.14;100.00;62537.16;5033741;28;20215;-86
2023/03/24 10:28:38;;;;;;;;;;;10.00;80.50;;;-151.14;100.00;62537.16;5053414;28;19927;-86
2023/03/24 10:31:10;;;;;;;;;;;10.00;80.50;;;-151.14;100.00;62537.16;5053235;28;19927;-86
2023/03/24 10:33:41;;;;;;;;;;;10.00;80.60;;;-151.14;100.00;62537.16;5053372;28;19921;-86
2023/03/24 10:36:11;;;;;;;;;;;10.00;80.40;;;-151.14;100.00;62537.16;5036782;28;19943;-86
2023/03/24 10:38:39;;;;;;;;;;;10.00;80.40;;;-151.14;100.00;62537.16;5053346;28;19927;-85
2023/03/24 10:41:07;;;;;;;;;;;10.00;80.30;;;-151.14;100.00;62537.16;5053047;28;20098;-86
2023/03/24 10:43:35;;;;;;;;;;;10.00;80.00;;;-151.14;100.00;62537.16;5036563;28;19921;-86
2023/03/24 10:46:03;;;;;;;;;;;10.00;80.20;;;-151.14;100.00;62537.16;5036563;28;19921;-86
2023/03/24 10:48:46;;;;;;;;;;;10.00;80.50;;;-151.14;100.00;62537.16;5053192;28;19921;-85
2023/03/24 10:51:18;;;;;;;;;;;10.00;80.40;;;-151.14;100.00;62537.16;5052855;28;19921;-86
2023/03/24 10:53:47;;;;;;;;;;;10.00;80.60;;;-151.14;100.00;62537.16;5053985;28;19921;-86
2023/03/24 10:56:19;;;;;;;;;;;10.00;80.80;;;-151.14;100.00;62537.16;5053045;28;19921;-86
2023/03/24 10:58:47;;;;;;;;;;;10.00;80.60;;;-151.14;100.00;62537.16;5053068;28;19921;-87
2023/03/24 11:01:24;;;;;;;;;;;10.00;80.50;;;8.85;100.00;62537.16;5053681;28;19920;-86
2023/03/24 11:03:58;;;;;;;;;;;10.00;80.50;;;-151.14;100.00;62537.16;5017845;28;20235;-86
2023/03/24 11:06:26;;;;;;;;;;;10.00;80.80;;;-151.14;100.00;62537.16;5016468;28;19921;-85
2023/03/24 11:09:09;;;;;;;;;;;10.00;80.60;;;-151.14;100.00;62537.16;5032939;28;19927;-86
2023/03/24 11:11:37;;;;;;;;;;;10.10;80.30;;;-151.14;100.00;62537.16;5016327;28;19927;-86
2023/03/24 11:14:18;;;;;;;;;;;10.10;80.10;;;-151.14;100.00;62537.16;5012258;28;20231;-87
2023/03/24 11:16:46;;;;;;;;;;;10.00;80.00;;;8.86;100.00;62537.16;5032881;28;19928;-86
2023/03/24 11:19:21;;;;;;;;;;;10.00;80.00;;;-151.14;100.00;62537.16;5015861;28;20136;-87
2023/03/24 11:21:49;;;;;;;;;;;10.00;79.70;;;-151.14;100.00;62537.16;5016251;28;19929;-87
2023/03/24 11:24:18;;;;;;;;;;;10.10;79.90;;;-151.14;100.00;62537.16;5016188;28;20231;-87
2023/03/24 11:26:46;;;;;;;;;;;10.10;80.10;;;-151.14;100.00;62537.16;5016342;28;19921;-86
2023/03/24 11:29:15;;;;;;;;;;;10.10;80.60;;;-151.14;100.00;62537.16;5032541;28;20213;-86